Accueil
METAR-TAF:

METAR-TAF

Aéroports :

Aéroport de Vavaʻu

Vavaʻu, Tonga

latitude: 18-35-07S, longitude: 173-57-42W, altitude: 72 m

Observation

Le bulletin a été fait il y a 50 minutes, à 02:00 UTC
Vent 12 kt de sud-est
Température 25°C
Humidité 57%
Pression 1015 hPa
Visibilité 10 km ou plus
Quelques nuages à une hauteur de 2000 ft

METAR: NFTV 230200Z 14012KT 9999 FEW020 25/16 Q1015 RMK DRY AIR 57% METAR

Heure: 15:50 (02:50 UTC)

Prévision

Le bulletin a été fait il y a 3 heures et 23 minutes, à 23:27 UTC
Prévision valable du 23 à 00 UTC au 23 à 24 UTC
Vent 12 kt de sud/sud-est
Visibilité 10 km ou plus
Quelques nuages à une hauteur de 2000 ft

TAF: NFTV 222327Z 2300/2324 15012KT 9999 FEW020

Observations et prévisions météorologiques de plus de 4000 aéroports (messages METAR et TAF).

Les stations disponibles sont représentées par des disques jaunes et rouges sur la carte.

Passer la souris dessus pour voir le nom de la station.

Cliquer dessus pour voir les observations et prévisions météorologiques.

Pour changer de carte: cliquez sur les boutons verts avec une croix noire pour zoomer, sur le bouton vert avec un tiret pour effectuer un zoom arrière, ou sur les flèches vertes pour les cartes adjacentes.


METAR-TAF: